Time;durP1;ratioP1;P1;durP2;ratioP2;P2;SDS_P1;SDS_P2;PMS_P1;PMS_P2;Temp;Humidity;BMP_temperature;BMP_pressure;BME280_temperature;BME280_humidity;BME280_pressure;Samples;Min_cycle;Max_cycle;Signal;HPM_P1;HPM_P2
2022/07/20 00:01:03;;;;;;;3.70;2.20;;;23.20;74.10;;;;;;4955635;29;20523;-90
2022/07/20 00:03:30;;;;;;;6.70;2.63;;;23.00;74.40;;;;;;4955699;29;20219;-91
2022/07/20 00:05:56;;;;;;;7.80;2.30;;;22.90;74.80;;;;;;4955832;29;20236;-90
2022/07/20 00:11:22;;;;;;;5.28;2.40;;;22.70;75.80;;;;;;4956789;29;20224;-89
2022/07/20 00:13:55;;;;;;;3.97;2.20;;;22.70;75.40;;;;;;4955494;29;20177;-89
2022/07/20 00:16:23;;;;;;;6.45;2.63;;;22.70;75.20;;;;;;4955319;29;20180;-89
2022/07/20 00:18:49;;;;;;;6.20;3.10;;;22.80;74.90;;;;;;4956532;28;20188;-88
2022/07/20 00:21:14;;;;;;;5.20;2.40;;;22.80;74.30;;;;;;4956409;28;20348;-89
2022/07/20 00:23:41;;;;;;;5.55;2.20;;;22.80;74.70;;;;;;4970926;28;20267;-88
2022/07/20 00:26:07;;;;;;;3.78;2.10;;;22.80;76.20;;;;;;4955961;28;20588;-88
2022/07/20 00:28:33;;;;;;;3.05;2.00;;;22.70;76.90;;;;;;4954898;29;20209;-89
2022/07/20 00:30:59;;;;;;;5.15;2.28;;;22.50;77.70;;;;;;4955108;29;20224;-89
2022/07/20 00:33:28;;;;;;;4.82;2.10;;;22.40;77.70;;;;;;4954977;29;20212;-89
2022/07/20 00:35:53;;;;;;;4.40;2.25;;;22.20;77.30;;;;;;4955133;29;20268;-89
2022/07/20 00:38:19;;;;;;;4.95;2.00;;;22.20;78.00;;;;;;4970817;28;20274;-87
2022/07/20 00:40:45;;;;;;;8.25;2.67;;;22.30;77.80;;;;;;4954651;29;20185;-88
2022/07/20 00:43:10;;;;;;;3.60;2.22;;;22.30;77.60;;;;;;4955264;29;20276;-89
2022/07/20 00:45:36;;;;;;;4.72;2.08;;;22.20;77.60;;;;;;4956330;28;20248;-88
2022/07/20 00:48:02;;;;;;;7.68;2.75;;;22.10;77.50;;;;;;4955090;29;20527;-89
2022/07/20 00:50:28;;;;;;;10.88;1.90;;;22.10;77.80;;;;;;4955098;29;20174;-89
2022/07/20 00:52:57;;;;;;;3.00;2.25;;;22.00;77.80;;;;;;4956572;28;20188;-89
2022/07/20 00:55:23;;;;;;;8.10;2.65;;;22.00;77.50;;;;;;4959659;28;20170;-88
2022/07/20 00:57:49;;;;;;;5.07;2.25;;;22.00;77.00;;;;;;4959573;28;20173;-89
2022/07/20 01:00:15;;;;;;;3.60;2.00;;;22.10;77.30;;;;;;4959513;28;20177;-88
2022/07/20 01:02:42;;;;;;;5.13;2.08;;;22.10;77.20;;;;;;4954572;28;20210;-88
2022/07/20 01:05:15;;;;;;;6.70;1.85;;;22.10;77.00;;;;;;4954607;29;20265;-87
2022/07/20 01:07:45;;;;;;;3.28;2.33;;;22.20;77.00;;;;;;4939848;29;20577;-86
2022/07/20 01:10:12;;;;;;;3.70;2.30;;;22.20;76.90;;;;;;4954363;29;20189;-88
2022/07/20 01:12:39;;;;;;;3.72;2.10;;;22.30;77.40;;;;;;4954873;29;20181;-87
2022/07/20 01:15:06;;;;;;;5.38;2.53;;;22.30;76.70;;;;;;4954316;29;20250;-88
2022/07/20 01:17:32;;;;;;;4.45;2.20;;;22.40;77.00;;;;;;4954586;29;20621;-88
2022/07/20 01:19:57;;;;;;;6.05;2.53;;;22.30;77.40;;;;;;4954457;29;20281;-87
2022/07/20 01:22:23;;;;;;;5.30;1.95;;;22.30;77.70;;;;;;4954511;29;20298;-89
2022/07/20 01:24:50;;;;;;;3.90;2.10;;;22.20;77.80;;;;;;4954407;29;20220;-87
2022/07/20 01:27:15;;;;;;;5.47;2.03;;;22.10;77.50;;;;;;4954398;29;20209;-88
2022/07/20 01:29:41;;;;;;;4.20;2.20;;;22.00;77.00;;;;;;4954109;29;20237;-87
2022/07/20 01:32:07;;;;;;;8.15;2.30;;;22.10;76.60;;;;;;4954187;29;20174;-88
2022/07/20 01:34:33;;;;;;;3.60;2.45;;;22.10;77.20;;;;;;4939189;29;20186;-87
2022/07/20 01:36:59;;;;;;;4.85;2.33;;;22.10;77.00;;;;;;4954339;29;20205;-88
2022/07/20 01:39:25;;;;;;;3.53;2.50;;;22.10;77.20;;;;;;4954728;29;20217;-89
2022/07/20 01:41:53;;;;;;;4.18;2.45;;;22.10;77.50;;;;;;4954348;29;20703;-89
2022/07/20 01:44:22;;;;;;;5.38;2.53;;;22.00;78.20;;;;;;4939027;29;20214;-88
2022/07/20 01:46:49;;;;;;;6.43;2.65;;;22.00;78.30;;;;;;4939165;29;20169;-88
2022/07/20 01:49:15;;;;;;;5.18;2.88;;;21.90;77.10;;;;;;4953997;29;21067;-87
2022/07/20 01:51:41;;;;;;;4.20;2.53;;;21.90;77.40;;;;;;4954210;29;20185;-88
2022/07/20 01:54:11;;;;;;;4.72;2.63;;;22.00;77.50;;;;;;4954184;29;20181;-89
2022/07/20 01:56:39;;;;;;;4.15;2.20;;;22.00;77.50;;;;;;4954158;29;20174;-90
2022/07/20 01:59:05;;;;;;;3.70;2.20;;;22.00;77.70;;;;;;4954053;29;20189;-88
2022/07/20 02:01:30;;;;;;;7.78;2.42;;;22.00;77.50;;;;;;4939471;29;20174;-89
2022/07/20 02:04:02;;;;;;;6.78;2.78;;;21.90;77.10;;;;;;4953828;28;20249;-88
2022/07/20 02:06:28;;;;;;;5.57;2.30;;;21.90;75.90;;;;;;4954210;29;20592;-88
2022/07/20 02:08:53;;;;;;;5.57;2.80;;;21.90;76.90;;;;;;4953881;29;20186;-86
2022/07/20 02:11:20;;;;;;;65.53;3.72;;;21.90;76.60;;;;;;4953863;29;20178;-88
2022/07/20 02:13:45;;;;;;;17.08;3.00;;;21.90;76.80;;;;;;4939210;29;20174;-89
2022/07/20 02:16:17;;;;;;;4.63;2.47;;;21.90;77.50;;;;;;4954033;29;20176;-90
2022/07/20 02:19:01;;;;;;;9.70;2.63;;;21.80;78.10;;;;;;4953688;29;20174;-89
2022/07/20 02:21:29;;;;;;;3.22;2.38;;;21.80;78.30;;;;;;4953996;29;20261;-90
2022/07/20 02:23:55;;;;;;;7.28;2.40;;;21.80;78.90;;;;;;4953292;29;20213;-89
2022/07/20 02:26:21;;;;;;;3.75;2.80;;;21.70;78.80;;;;;;4953714;29;20233;-89
2022/07/20 02:28:47;;;;;;;5.30;2.60;;;21.70;77.30;;;;;;4953679;29;20186;-89
2022/07/20 02:31:13;;;;;;;4.47;2.60;;;21.70;77.20;;;;;;4938747;29;20609;-89
2022/07/20 02:33:40;;;;;;;4.65;2.75;;;21.70;77.40;;;;;;4952896;29;20252;-89
2022/07/20 02:36:06;;;;;;;4.85;2.75;;;21.60;77.40;;;;;;4952926;29;20193;-89
2022/07/20 02:38:32;;;;;;;3.75;2.47;;;21.60;77.80;;;;;;4952828;28;20185;-89
2022/07/20 02:40:57;;;;;;;6.75;2.63;;;21.60;77.80;;;;;;4937780;29;20234;-88
2022/07/20 02:43:23;;;;;;;3.75;2.50;;;21.60;77.40;;;;;;4952379;29;20316;-88
2022/07/20 02:45:49;;;;;;;6.07;3.33;;;21.60;77.80;;;;;;4937840;29;20194;-88
2022/07/20 02:48:14;;;;;;;3.70;2.13;;;21.60;77.70;;;;;;4937879;29;20265;-87
2022/07/20 02:50:42;;;;;;;4.97;2.92;;;21.60;78.00;;;;;;4952750;29;20687;-89
2022/07/20 02:53:13;;;;;;;3.40;2.58;;;21.60;78.20;;;;;;4952930;29;20525;-89
2022/07/20 02:55:40;;;;;;;4.95;2.85;;;21.50;78.10;;;;;;4970545;28;20691;-89
2022/07/20 02:58:06;;;;;;;4.63;2.70;;;21.50;77.90;;;;;;4958231;28;20192;-87
2022/07/20 03:00:31;;;;;;;6.95;2.88;;;21.50;77.50;;;;;;4972243;28;20526;-88
2022/07/20 03:02:58;;;;;;;6.85;2.95;;;21.50;78.00;;;;;;4971670;28;20275;-88
2022/07/20 03:05:24;;;;;;;7.50;3.03;;;21.40;77.20;;;;;;4957157;29;20177;-87
2022/07/20 03:07:50;;;;;;;8.50;3.03;;;21.40;77.30;;;;;;4955840;29;20324;-87
2022/07/20 03:10:16;;;;;;;4.75;2.65;;;21.40;77.20;;;;;;4955610;29;20272;-88
2022/07/20 03:12:41;;;;;;;5.10;2.85;;;21.40;77.50;;;;;;4962761;28;20227;-87
2022/07/20 03:15:11;;;;;;;5.03;2.30;;;21.40;78.50;;;;;;4974557;28;20185;-88
2022/07/20 03:17:49;;;;;;;6.63;2.80;;;21.40;78.50;;;;;;4975423;28;20558;-88
2022/07/20 03:20:38;;;;;;;5.53;2.83;;;21.40;78.70;;;;;;4975013;28;20190;-89
2022/07/20 03:23:04;;;;;;;7.70;2.70;;;21.40;79.50;;;;;;4974982;28;20227;-89
2022/07/20 03:25:30;;;;;;;6.20;2.55;;;21.30;79.70;;;;;;4975965;28;20176;-90
2022/07/20 03:27:56;;;;;;;4.68;2.80;;;21.20;79.80;;;;;;4962825;28;20192;-89
2022/07/20 03:30:23;;;;;;;5.93;2.63;;;21.20;79.80;;;;;;4955733;29;20212;-88
2022/07/20 03:32:49;;;;;;;11.32;2.80;;;21.10;80.50;;;;;;4955506;29;20181;-88
2022/07/20 03:35:15;;;;;;;3.70;2.67;;;21.10;81.20;;;;;;4956672;29;20313;-87
2022/07/20 03:37:41;;;;;;;8.18;2.55;;;21.10;80.50;;;;;;4971502;28;20181;-89
2022/07/20 03:40:08;;;;;;;8.57;2.85;;;21.10;80.50;;;;;;4955582;29;20188;-88
2022/07/20 03:42:34;;;;;;;5.68;2.58;;;21.10;80.20;;;;;;4955261;29;20233;-89
2022/07/20 03:45:01;;;;;;;8.95;3.22;;;21.10;79.90;;;;;;4955279;29;20188;-88
2022/07/20 03:47:26;;;;;;;6.72;2.67;;;21.10;80.50;;;;;;4955437;29;20231;-86
2022/07/20 03:49:52;;;;;;;5.50;2.38;;;21.10;79.40;;;;;;4955330;29;20185;-89
2022/07/20 03:52:18;;;;;;;5.50;2.60;;;21.10;79.40;;;;;;4955362;29;20180;-89
2022/07/20 03:54:46;;;;;;;7.32;2.33;;;21.10;79.70;;;;;;4955466;29;20244;-89
2022/07/20 03:57:12;;;;;;;8.50;2.97;;;21.10;80.60;;;;;;4955920;28;20185;-89
2022/07/20 03:59:38;;;;;;;6.40;3.30;;;21.10;81.20;;;;;;4975056;28;20583;-89
2022/07/20 04:02:04;;;;;;;4.43;2.57;;;21.00;80.50;;;;;;4974517;28;20181;-89
2022/07/20 04:04:30;;;;;;;5.57;2.47;;;21.00;81.40;;;;;;4974857;28;20417;-90
2022/07/20 04:06:56;;;;;;;4.00;2.53;;;20.90;82.00;;;;;;4974891;28;20199;-89
2022/07/20 04:12:07;;;;;;;3.70;2.75;;;20.80;82.80;;;;;;4976399;28;20233;-89
2022/07/20 04:14:34;;;;;;;8.25;2.63;;;20.70;81.70;;;;;;4975130;28;20191;-89
2022/07/20 04:17:00;;;;;;;6.45;2.67;;;20.80;82.60;;;;;;4974886;28;20619;-89
2022/07/20 04:19:26;;;;;;;5.00;2.60;;;20.70;84.00;;;;;;4975806;28;20185;-90
2022/07/20 04:22:01;;;;;;;5.80;2.63;;;20.60;84.30;;;;;;4975934;28;20641;-89
2022/07/20 04:24:27;;;;;;;3.80;2.60;;;20.60;85.50;;;;;;4975858;28;20212;-90
2022/07/20 04:26:54;;;;;;;3.97;2.40;;;20.60;85.50;;;;;;4974671;28;20259;-89
2022/07/20 04:29:21;;;;;;;3.92;2.53;;;20.50;85.10;;;;;;4994586;28;20687;-90
2022/07/20 04:31:46;;;;;;;8.60;2.95;;;20.50;86.40;;;;;;4978645;28;20177;-89
2022/07/20 04:34:12;;;;;;;4.97;3.05;;;20.50;86.70;;;;;;4973237;28;20324;-90
2022/07/20 04:36:39;;;;;;;6.45;3.03;;;20.50;87.40;;;;;;4960237;28;20209;-90
2022/07/20 04:39:04;;;;;;;5.28;2.67;;;20.50;87.20;;;;;;4959052;29;20177;-90
2022/07/20 04:41:30;;;;;;;4.45;2.78;;;20.50;87.50;;;;;;4958899;29;20229;-90
2022/07/20 04:43:56;;;;;;;5.65;2.60;;;20.50;86.60;;;;;;4959908;28;20201;-90
2022/07/20 04:46:22;;;;;;;9.13;2.67;;;20.50;87.60;;;;;;4958832;29;20230;-89
2022/07/20 04:48:47;;;;;;;3.75;2.53;;;20.60;86.30;;;;;;4959905;28;20169;-89
2022/07/20 04:51:13;;;;;;;4.90;2.80;;;20.70;86.20;;;;;;4958382;29;20173;-87
2022/07/20 04:53:38;;;;;;;5.40;3.00;;;20.80;85.20;;;;;;4958240;29;20559;-89
2022/07/20 04:56:07;;;;;;;5.90;2.90;;;21.00;85.40;;;;;;4959908;28;20228;-88
2022/07/20 04:58:32;;;;;;;8.85;2.97;;;21.10;86.10;;;;;;4970525;28;20259;-89
2022/07/20 05:00:58;;;;;;;4.07;2.88;;;21.20;86.20;;;;;;4976445;28;20211;-89
2022/07/20 05:03:24;;;;;;;5.35;3.13;;;21.30;87.00;;;;;;4958494;29;20220;-90
2022/07/20 05:05:50;;;;;;;3.55;2.53;;;21.30;86.20;;;;;;4958664;29;20184;-90
2022/07/20 05:08:16;;;;;;;5.25;2.53;;;21.30;86.70;;;;;;4958706;29;20268;-90
2022/07/20 05:10:42;;;;;;;7.93;2.53;;;21.40;87.90;;;;;;4958522;29;20268;-89
2022/07/20 05:13:07;;;;;;;5.47;2.72;;;21.40;87.40;;;;;;4958427;29;20223;-90
2022/07/20 05:15:33;;;;;;;3.92;2.72;;;21.50;86.80;;;;;;4958306;29;20184;-90
2022/07/20 05:17:58;;;;;;;4.10;2.50;;;21.40;86.20;;;;;;4957785;29;20185;-90
2022/07/20 05:20:24;;;;;;;5.43;2.78;;;21.50;87.00;;;;;;4958027;29;20612;-89
2022/07/20 05:22:50;;;;;;;5.10;2.80;;;21.60;87.10;;;;;;4958483;29;20205;-90
2022/07/20 05:25:15;;;;;;;4.07;2.90;;;21.60;87.80;;;;;;4956465;29;20197;-90
2022/07/20 05:27:41;;;;;;;3.63;2.40;;;21.70;88.60;;;;;;4956885;28;20181;-90
2022/07/20 05:30:07;;;;;;;7.07;2.83;;;21.70;87.10;;;;;;4957196;29;20200;-89
2022/07/20 05:32:33;;;;;;;5.85;2.92;;;21.70;85.90;;;;;;4957011;29;20203;-89
2022/07/20 05:34:59;;;;;;;9.98;2.65;;;21.80;85.50;;;;;;4957114;29;20181;-89
2022/07/20 05:37:25;;;;;;;4.47;2.50;;;21.90;85.50;;;;;;4957391;29;20182;-89
2022/07/20 05:39:50;;;;;;;5.80;2.38;;;22.00;84.30;;;;;;4956806;28;20185;-89
2022/07/20 05:42:16;;;;;;;4.82;2.80;;;22.00;84.60;;;;;;4956878;29;20241;-89
2022/07/20 05:44:41;;;;;;;5.85;3.28;;;22.10;85.50;;;;;;4958376;29;20192;-89
2022/07/20 05:47:09;;;;;;;4.82;2.90;;;22.20;85.10;;;;;;4956368;29;20220;-89
2022/07/20 05:49:35;;;;;;;3.70;3.13;;;22.30;85.30;;;;;;4956886;29;20185;-89
2022/07/20 05:52:01;;;;;;;8.93;2.97;;;22.30;86.30;;;;;;4956913;29;20185;-89
2022/07/20 05:54:26;;;;;;;7.13;3.45;;;22.30;85.70;;;;;;4956047;29;20264;-89
2022/07/20 05:56:52;;;;;;;5.88;2.95;;;22.40;85.90;;;;;;4957384;29;20201;-89
2022/07/20 05:59:18;;;;;;;5.72;3.20;;;22.40;86.40;;;;;;4955521;28;20178;-88
2022/07/20 06:01:46;;;;;;;5.07;3.03;;;22.50;86.20;;;;;;4955861;29;20291;-88
2022/07/20 06:04:13;;;;;;;5.47;2.63;;;22.60;86.00;;;;;;4956081;29;20655;-89
2022/07/20 06:06:39;;;;;;;5.57;2.83;;;22.70;86.60;;;;;;4956576;29;20181;-88
2022/07/20 06:09:06;;;;;;;7.32;3.03;;;22.70;86.60;;;;;;4956037;29;20189;-88
2022/07/20 06:11:32;;;;;;;7.35;3.10;;;22.80;86.10;;;;;;4966583;28;20191;-89
2022/07/20 06:13:57;;;;;;;7.43;2.80;;;23.00;86.20;;;;;;4975558;28;20271;-89
2022/07/20 06:16:23;;;;;;;5.97;2.80;;;23.10;86.60;;;;;;4959000;28;20216;-88
2022/07/20 06:18:49;;;;;;;5.72;2.90;;;23.20;86.60;;;;;;4972539;28;20567;-89
2022/07/20 06:21:14;;;;;;;3.67;2.67;;;23.30;86.60;;;;;;4956363;29;20248;-90
2022/07/20 06:23:41;;;;;;;6.57;2.70;;;23.50;86.50;;;;;;4957545;29;20209;-90
2022/07/20 06:26:07;;;;;;;6.82;2.53;;;23.60;87.30;;;;;;4955993;29;20185;-89
2022/07/20 06:28:32;;;;;;;6.47;3.20;;;23.70;87.10;;;;;;4966982;28;20624;-90
2022/07/20 06:30:58;;;;;;;5.43;2.83;;;23.80;87.10;;;;;;4976876;28;20655;-90
2022/07/20 06:33:25;;;;;;;6.00;2.97;;;23.90;86.70;;;;;;4975576;28;20180;-89
2022/07/20 06:35:50;;;;;;;6.25;2.88;;;24.00;86.50;;;;;;4975701;28;20184;-88
2022/07/20 06:38:16;;;;;;;4.75;3.10;;;24.10;85.80;;;;;;4975444;28;20192;-89
2022/07/20 06:40:42;;;;;;;6.95;2.65;;;24.20;86.00;;;;;;4976326;28;20161;-89
2022/07/20 06:43:07;;;;;;;3.70;2.65;;;24.40;85.80;;;;;;4975717;28;20291;-89
2022/07/20 06:45:33;;;;;;;6.00;2.90;;;24.50;86.00;;;;;;4975652;28;20188;-89
2022/07/20 06:47:58;;;;;;;6.32;2.67;;;24.70;83.40;;;;;;4975521;28;20177;-89
2022/07/20 06:50:24;;;;;;;5.90;2.72;;;24.70;82.30;;;;;;4974446;28;20177;-89
2022/07/20 06:52:50;;;;;;;8.13;2.63;;;24.90;78.90;;;;;;4973886;28;20188;-89
2022/07/20 06:55:15;;;;;;;4.43;2.50;;;25.10;77.50;;;;;;4955487;29;20283;-89
2022/07/20 06:57:41;;;;;;;8.93;2.50;;;25.20;76.40;;;;;;4960484;28;20268;-89
2022/07/20 07:00:08;;;;;;;6.43;2.67;;;25.50;75.80;;;;;;4972986;28;20200;-87
2022/07/20 07:02:34;;;;;;;7.75;2.65;;;25.70;75.40;;;;;;4971144;28;20689;-88
2022/07/20 07:05:00;;;;;;;5.90;2.88;;;25.90;74.50;;;;;;4955055;29;20181;-85
2022/07/20 07:07:25;;;;;;;5.97;3.03;;;26.10;74.70;;;;;;4956517;29;20189;-85
2022/07/20 07:09:51;;;;;;;9.63;2.58;;;26.40;73.80;;;;;;4956411;29;20177;-88
2022/07/20 07:12:17;;;;;;;6.22;3.08;;;26.70;74.10;;;;;;4956170;29;20177;-88
2022/07/20 07:14:42;;;;;;;6.68;2.30;;;26.90;73.20;;;;;;4955350;29;20177;-90
2022/07/20 07:17:08;;;;;;;12.40;2.78;;;27.20;71.70;;;;;;4971285;28;20185;-87
2022/07/20 07:19:34;;;;;;;5.03;2.40;;;27.40;71.80;;;;;;4956181;29;20183;-87
2022/07/20 07:21:59;;;;;;;3.38;2.45;;;27.60;70.70;;;;;;4956213;29;20553;-88
2022/07/20 07:24:25;;;;;;;4.72;2.25;;;27.90;71.00;;;;;;4970914;28;20432;-90
2022/07/20 07:26:50;;;;;;;5.13;2.20;;;28.10;69.90;;;;;;4954580;28;20196;-89
2022/07/20 07:29:16;;;;;;;4.65;2.70;;;28.20;70.00;;;;;;4954455;28;20193;-86
2022/07/20 07:31:42;;;;;;;6.28;2.25;;;28.40;70.00;;;;;;4954841;29;20173;-84
2022/07/20 07:34:08;;;;;;;3.65;2.30;;;28.60;69.70;;;;;;4955897;29;20221;-88
2022/07/20 07:36:33;;;;;;;5.18;2.20;;;28.80;68.80;;;;;;4955130;29;20177;-88
2022/07/20 07:38:59;;;;;;;13.18;2.80;;;29.00;69.90;;;;;;4956158;29;20181;-87
2022/07/20 07:41:25;;;;;;;5.50;2.55;;;29.10;68.80;;;;;;4954782;29;20324;-89
2022/07/20 07:43:50;;;;;;;3.47;2.33;;;29.30;68.90;;;;;;4954788;29;20247;-88
2022/07/20 07:46:16;;;;;;;5.57;2.65;;;29.50;68.00;;;;;;4955115;29;20281;-90
2022/07/20 07:48:41;;;;;;;8.00;2.50;;;29.60;68.50;;;;;;4955208;29;20189;-88
2022/07/20 07:51:07;;;;;;;6.07;2.42;;;29.70;67.90;;;;;;4956237;29;20212;-90
2022/07/20 07:53:33;;;;;;;3.08;2.25;;;29.80;67.90;;;;;;4954548;28;20185;-88
2022/07/20 07:55:59;;;;;;;4.43;2.45;;;29.90;67.50;;;;;;4954632;28;20185;-89
2022/07/20 07:58:24;;;;;;;8.43;2.50;;;30.10;68.00;;;;;;4954840;29;20181;-88
2022/07/20 08:00:50;;;;;;;9.35;2.90;;;30.30;67.60;;;;;;4954684;28;20181;-89
2022/07/20 08:03:16;;;;;;;9.48;2.53;;;30.50;66.80;;;;;;4959930;29;20216;-89
2022/07/20 08:05:42;;;;;;;5.03;2.30;;;30.70;66.50;;;;;;4954633;29;20268;-89
2022/07/20 08:08:10;;;;;;;4.38;2.20;;;30.80;65.90;;;;;;4951016;29;20624;-90
2022/07/20 08:10:37;;;;;;;4.70;1.88;;;30.90;65.00;;;;;;4958860;29;20518;-89
2022/07/20 08:13:03;;;;;;;3.55;2.17;;;31.00;65.10;;;;;;4959010;29;20180;-90
2022/07/20 08:15:29;;;;;;;6.78;2.10;;;31.10;64.20;;;;;;4959051;29;20185;-91
2022/07/20 08:17:55;;;;;;;5.00;2.08;;;31.30;64.40;;;;;;4974465;28;20177;-89
2022/07/20 08:20:22;;;;;;;5.00;2.00;;;31.50;63.00;;;;;;4958321;29;20183;-88
2022/07/20 08:22:49;;;;;;;4.35;2.00;;;31.60;63.10;;;;;;4959279;29;20263;-89
2022/07/20 08:25:14;;;;;;;6.25;2.42;;;31.70;64.50;;;;;;4957995;29;20184;-90
2022/07/20 08:27:40;;;;;;;4.35;2.40;;;31.90;64.60;;;;;;4966990;28;20608;-90
2022/07/20 08:30:06;;;;;;;3.25;2.13;;;31.90;63.60;;;;;;4974942;28;20216;-90
2022/07/20 08:32:32;;;;;;;2.85;2.00;;;32.10;63.20;;;;;;4958423;29;20188;-89
2022/07/20 08:34:58;;;;;;;3.10;1.70;;;32.40;62.80;;;;;;4959511;29;20173;-90
2022/07/20 08:37:23;;;;;;;6.60;2.03;;;32.50;62.40;;;;;;4957919;29;20188;-89
2022/07/20 08:39:50;;;;;;;6.00;1.90;;;32.60;60.90;;;;;;4958048;29;20180;-91
2022/07/20 08:42:16;;;;;;;5.22;2.00;;;32.70;61.20;;;;;;4959158;29;20286;-91
2022/07/20 08:44:43;;;;;;;5.03;1.70;;;33.00;61.00;;;;;;4957953;29;20189;-89
2022/07/20 08:47:13;;;;;;;3.17;1.90;;;33.00;60.30;;;;;;4959180;29;20180;-89
2022/07/20 08:49:44;;;;;;;3.30;2.00;;;33.10;60.30;;;;;;4957927;29;20185;-91
2022/07/20 08:52:10;;;;;;;6.75;2.60;;;33.20;60.20;;;;;;4957636;29;20172;-89
2022/07/20 08:54:36;;;;;;;4.60;1.75;;;33.20;59.30;;;;;;4958774;29;20195;-88
2022/07/20 08:57:14;;;;;;;3.00;1.98;;;33.40;60.00;;;;;;4959515;29;20172;-90
2022/07/20 08:59:41;;;;;;;3.47;2.13;;;33.50;60.50;;;;;;4959153;29;20161;-90
2022/07/20 09:02:08;;;;;;;3.42;1.98;;;33.60;60.20;;;;;;4958751;28;20199;-88
2022/07/20 09:04:56;;;;;;;3.75;1.67;;;33.60;59.40;;;;;;4957487;29;20208;-90
2022/07/20 09:07:41;;;;;;;3.78;1.90;;;33.80;59.10;;;;;;4958856;29;20165;-89
2022/07/20 09:10:18;;;;;;;2.40;1.55;;;34.00;58.50;;;;;;4957535;29;20188;-91
2022/07/20 09:13:13;;;;;;;5.40;1.80;;;34.10;58.20;;;;;;4956643;28;20622;-91
2022/07/20 09:15:50;;;;;;;3.03;1.60;;;34.20;57.70;;;;;;4955659;29;20192;-90
2022/07/20 09:18:17;;;;;;;6.15;1.90;;;34.30;59.10;;;;;;4957051;29;20242;-89
2022/07/20 09:20:48;;;;;;;3.33;1.95;;;34.50;57.70;;;;;;4957563;29;20188;-90
2022/07/20 09:23:21;;;;;;;5.90;1.90;;;34.50;57.90;;;;;;4957547;29;20240;-90
2022/07/20 09:25:50;;;;;;;6.05;1.90;;;34.60;58.60;;;;;;4956958;29;20655;-89
2022/07/20 09:28:16;;;;;;;5.03;2.00;;;34.60;58.20;;;;;;4965649;28;20286;-89
2022/07/20 09:30:53;;;;;;;4.70;1.92;;;34.70;58.80;;;;;;4975577;28;20255;-89
2022/07/20 09:33:31;;;;;;;6.88;2.22;;;34.80;54.90;;;;;;4992068;28;20175;-89
2022/07/20 09:36:02;;;;;;;2.80;1.98;;;34.80;56.20;;;;;;4975868;28;20513;-88
2022/07/20 09:38:36;;;;;;;5.72;1.80;;;35.00;55.90;;;;;;4976484;28;20168;-86
2022/07/20 09:41:04;;;;;;;4.35;2.08;;;35.10;56.00;;;;;;4959272;28;20211;-88
2022/07/20 09:43:35;;;;;;;3.83;1.80;;;35.10;57.30;;;;;;4956064;28;20216;-89
2022/07/20 09:46:16;;;;;;;3.63;1.85;;;35.20;55.60;;;;;;4977208;28;20615;-91
2022/07/20 09:48:44;;;;;;;5.25;2.00;;;35.20;55.00;;;;;;4962775;28;20188;-92
2022/07/20 09:51:31;;;;;;;3.75;1.92;;;35.30;55.00;;;;;;4957958;29;20179;-91
2022/07/20 09:54:05;;;;;;;3.05;2.05;;;35.40;55.60;;;;;;4957097;29;20615;-92
2022/07/20 09:56:33;;;;;;;5.13;2.10;;;35.50;55.80;;;;;;4956929;29;20191;-89
2022/07/20 09:59:00;;;;;;;4.40;1.73;;;35.60;55.60;;;;;;4971961;28;20194;-92
2022/07/20 10:01:28;;;;;;;3.80;1.80;;;35.60;55.70;;;;;;4976205;28;20593;-91
2022/07/20 10:03:57;;;;;;;4.65;2.03;;;35.70;55.10;;;;;;4975675;28;20266;-90
2022/07/20 10:06:25;;;;;;;4.45;2.20;;;35.90;54.50;;;;;;4976063;28;20172;-90
2022/07/20 10:08:51;;;;;;;3.30;1.60;;;36.00;53.40;;;;;;4965796;28;20272;-88
2022/07/20 10:11:18;;;;;;;3.13;1.70;;;36.00;53.80;;;;;;4954368;28;20259;-90
2022/07/20 10:13:45;;;;;;;4.18;1.98;;;36.10;55.00;;;;;;4956407;28;20185;-93
2022/07/20 10:16:31;;;;;;;4.50;1.73;;;36.10;54.30;;;;;;4957989;28;20185;-89
2022/07/20 10:19:00;;;;;;;3.80;1.85;;;36.20;54.30;;;;;;4956472;29;20188;-88
2022/07/20 10:21:48;;;;;;;6.53;2.08;;;36.20;54.40;;;;;;4956866;29;20266;-90
2022/07/20 10:24:30;;;;;;;4.20;2.10;;;36.30;53.80;;;;;;4955889;28;20216;-88
2022/07/20 10:27:08;;;;;;;5.38;1.90;;;36.20;55.00;;;;;;4953091;28;20200;-90
2022/07/20 10:29:48;;;;;;;3.80;2.08;;;36.00;53.70;;;;;;4972208;28;20275;-88
2022/07/20 10:32:17;;;;;;;3.90;1.80;;;35.90;52.60;;;;;;4955895;29;20232;-86
2022/07/20 10:34:56;;;;;;;3.28;1.88;;;35.80;53.20;;;;;;4954632;28;20874;-88
2022/07/20 10:37:42;;;;;;;3.85;2.00;;;35.70;53.30;;;;;;4951587;29;20177;-91
2022/07/20 10:40:16;;;;;;;6.43;2.20;;;35.70;54.30;;;;;;4942636;28;20616;-90
2022/07/20 10:42:51;;;;;;;4.10;1.67;;;35.80;54.80;;;;;;4955971;28;20239;-86
2022/07/20 10:45:16;;;;;;;5.80;2.25;;;35.90;54.10;;;;;;4946587;28;20563;-86
2022/07/20 10:47:44;;;;;;;3.78;1.90;;;35.90;55.00;;;;;;4945021;28;20237;-85
2022/07/20 10:50:29;;;;;;;2.38;2.10;;;35.70;54.40;;;;;;4960243;28;20199;-88
2022/07/20 10:52:58;;;;;;;6.35;2.17;;;35.60;54.20;;;;;;4945658;29;20180;-86
2022/07/20 10:55:33;;;;;;;8.32;2.63;;;35.70;53.40;;;;;;4955870;28;20623;-88
2022/07/20 10:58:10;;;;;;;4.40;2.50;;;35.90;54.80;;;;;;4955241;28;20641;-86
2022/07/20 11:00:55;;;;;;;3.35;2.20;;;36.00;55.00;;;;;;4966068;28;20662;-89
2022/07/20 11:03:27;;;;;;;4.35;2.58;;;36.20;53.50;;;;;;4953823;28;20918;-89
2022/07/20 11:06:00;;;;;;;2.90;1.90;;;36.40;52.70;;;;;;4955441;28;20188;-86
2022/07/20 11:08:26;;;;;;;2.33;1.95;;;36.70;52.30;;;;;;4955185;28;20195;-87
2022/07/20 11:10:52;;;;;;;3.85;2.50;;;36.80;52.10;;;;;;4956322;28;20181;-87
2022/07/20 11:13:18;;;;;;;3.70;2.50;;;36.90;53.20;;;;;;4954896;28;20271;-88
2022/07/20 11:15:47;;;;;;;4.30;2.58;;;37.00;51.70;;;;;;4954831;28;20275;-87
2022/07/20 11:18:18;;;;;;;6.75;2.72;;;37.00;51.50;;;;;;4954512;28;20208;-88
2022/07/20 11:20:50;;;;;;;5.55;2.45;;;37.10;51.90;;;;;;4955464;29;20228;-85
2022/07/20 11:23:18;;;;;;;5.45;2.85;;;37.20;50.80;;;;;;4962643;28;20219;-86
2022/07/20 11:25:56;;;;;;;9.13;2.80;;;37.30;51.40;;;;;;4974625;28;20215;-86
2022/07/20 11:28:25;;;;;;;5.68;2.60;;;37.30;50.70;;;;;;4958792;28;20651;-84
2022/07/20 11:30:53;;;;;;;4.07;2.17;;;37.30;51.20;;;;;;4954768;29;20188;-86
2022/07/20 11:33:37;;;;;;;3.28;2.30;;;37.30;50.20;;;;;;4953525;28;20212;-84
2022/07/20 11:36:14;;;;;;;5.88;2.45;;;37.40;51.70;;;;;;4954464;28;20289;-86
2022/07/20 11:38:48;;;;;;;5.68;2.50;;;37.40;52.10;;;;;;4956624;28;20267;-85
2022/07/20 11:41:19;;;;;;;5.78;2.50;;;37.40;51.40;;;;;;4954655;29;20670;-86
2022/07/20 11:43:45;;;;;;;5.85;2.50;;;37.50;50.80;;;;;;4954178;28;20596;-86
2022/07/20 11:46:38;;;;;;;3.10;2.50;;;37.50;51.60;;;;;;4956004;28;20184;-85
2022/07/20 11:49:06;;;;;;;3.28;2.50;;;37.60;52.00;;;;;;4934318;29;20197;-86
2022/07/20 11:51:35;;;;;;;3.30;2.40;;;37.70;52.50;;;;;;4937287;29;20201;-87
2022/07/20 11:54:02;;;;;;;5.47;2.88;;;37.80;50.70;;;;;;4952100;28;20196;-84
2022/07/20 11:56:29;;;;;;;7.82;2.67;;;37.80;52.80;;;;;;4956087;29;20172;-88
2022/07/20 11:59:00;;;;;;;4.40;2.53;;;37.80;51.20;;;;;;4954625;28;20641;-92
2022/07/20 12:01:29;;;;;;;3.25;2.08;;;37.80;52.30;;;;;;4955276;28;20185;-87
2022/07/20 12:04:09;;;;;;;5.10;2.65;;;37.90;52.70;;;;;;4953602;29;20299;-85
2022/07/20 12:06:38;;;;;;;10.60;2.63;;;38.00;52.20;;;;;;4954673;29;20183;-87
2022/07/20 12:09:12;;;;;;;6.65;2.13;;;38.00;50.80;;;;;;4955336;28;20239;-87
2022/07/20 12:11:59;;;;;;;5.20;2.47;;;38.00;50.70;;;;;;4955988;29;20164;-88
2022/07/20 12:14:31;;;;;;;6.13;2.17;;;38.00;51.10;;;;;;4953228;28;20184;-87
2022/07/20 12:17:20;;;;;;;5.97;2.40;;;38.10;51.10;;;;;;4955137;28;20173;-87
2022/07/20 12:19:49;;;;;;;4.35;2.35;;;38.20;51.20;;;;;;4936493;29;20248;-84
2022/07/20 12:22:29;;;;;;;5.72;2.20;;;38.30;51.40;;;;;;4938338;28;20232;-86
2022/07/20 12:25:05;;;;;;;4.43;2.10;;;38.50;52.30;;;;;;4955653;28;20180;-85
2022/07/20 12:27:33;;;;;;;4.25;2.38;;;38.50;49.80;;;;;;4953899;28;20185;-85
2022/07/20 12:30:00;;;;;;;4.85;2.60;;;38.40;49.50;;;;;;4955497;28;20259;-84
2022/07/20 12:32:31;;;;;;;3.75;2.30;;;38.40;50.80;;;;;;4952972;28;20196;-84
2022/07/20 12:34:58;;;;;;;4.72;2.00;;;38.30;50.60;;;;;;4955037;28;20204;-88
2022/07/20 12:37:24;;;;;;;4.57;2.40;;;38.40;50.70;;;;;;4954961;28;20181;-89
2022/07/20 12:39:54;;;;;;;5.60;2.30;;;38.40;49.70;;;;;;4955331;29;20180;-86
2022/07/20 12:42:23;;;;;;;5.85;2.80;;;38.50;49.20;;;;;;4969116;28;20225;-85
2022/07/20 12:45:01;;;;;;;2.42;1.75;;;38.50;49.10;;;;;;4954842;29;20200;-85
2022/07/20 12:47:27;;;;;;;3.00;2.35;;;38.50;50.50;;;;;;4952311;28;20180;-84
2022/07/20 12:49:53;;;;;;;4.70;2.15;;;38.70;50.60;;;;;;4956831;28;20610;-85
2022/07/20 12:52:19;;;;;;;6.40;2.78;;;38.90;49.60;;;;;;4957010;28;20675;-84
2022/07/20 12:54:45;;;;;;;6.53;2.25;;;38.90;49.50;;;;;;4958501;28;20177;-85
2022/07/20 12:57:14;;;;;;;4.05;2.33;;;38.90;49.60;;;;;;4958250;28;20187;-82